Time;durP1;ratioP1;P1;durP2;ratioP2;P2;SDS_P1;SDS_P2;PMS_P1;PMS_P2;Temp;Humidity;BMP_temperature;BMP_pressure;BME280_temperature;BME280_humidity;BME280_pressure;Samples;Min_cycle;Max_cycle;Signal;HPM_P1;HPM_P2
2023/08/23 00:02:08;;;;;;;4.47;2.70;;;20.30;99.90;;;;;;4972087;28;20457;-83
2023/08/23 00:04:52;;;;;;;7.17;2.40;;;20.20;99.90;;;;;;4976142;28;20427;-83
2023/08/23 00:07:40;;;;;;;3.33;2.00;;;20.10;99.90;;;;;;4973414;28;20887;-83
2023/08/23 00:10:33;;;;;;;5.87;2.33;;;20.10;99.90;;;;;;4977022;28;20447;-84
2023/08/23 00:13:40;;;;;;;6.33;2.60;;;20.00;99.90;;;;;;4987507;28;20469;-84
2023/08/23 00:16:05;;;;;;;3.37;2.10;;;19.90;1.00;;;;;;4981506;28;20463;-84
2023/08/23 00:18:37;;;;;;;4.40;2.23;;;19.80;1.00;;;;;;4975977;28;20865;-84
2023/08/23 00:21:03;;;;;;;5.50;2.63;;;19.80;1.00;;;;;;4968892;28;20229;-85
2023/08/23 00:23:29;;;;;;;6.73;2.70;;;19.70;1.00;;;;;;4976987;28;20844;-83
2023/08/23 00:26:15;;;;;;;;;;;;;;;;;;;;;
2023/08/23 00:28:41;;;;;;;5.00;2.40;;;19.70;1.00;;;;;;4969572;28;20179;-82
2023/08/23 00:31:10;;;;;;;3.20;2.00;;;19.70;1.00;;;;;;4973028;28;20525;-83
2023/08/23 00:33:36;;;;;;;6.00;2.20;;;19.70;1.00;;;;;;4972003;28;20442;-83
2023/08/23 00:36:05;;;;;;;6.00;2.67;;;19.70;1.00;;;;;;4969345;28;20492;-84
2023/08/23 00:38:30;;;;;;;5.13;2.40;;;19.70;1.00;;;;;;4974440;28;20184;-84
2023/08/23 00:40:57;;;;;;;5.07;2.30;;;19.70;1.00;;;;;;4975715;28;21036;-83
2023/08/23 00:43:25;;;;;;;2.60;2.17;;;19.70;1.00;;;;;;4977968;28;20183;-84
2023/08/23 00:45:51;;;;;;;3.90;2.83;;;19.70;1.00;;;;;;4967486;28;20459;-84
2023/08/23 00:48:23;;;;;;;6.73;3.30;;;19.70;1.00;;;;;;4977663;28;20436;-84
2023/08/23 00:50:52;;;;;;;6.27;2.73;;;19.60;1.00;;;;;;4974853;28;20514;-84
2023/08/23 00:53:29;;;;;;;4.77;2.47;;;19.60;1.00;;;;;;4975849;28;20452;-84
2023/08/23 00:55:55;;;;;;;4.07;2.50;;;19.60;1.00;;;;;;4976881;28;20633;-84
2023/08/23 00:58:22;;;;;;;5.17;2.70;;;19.60;1.00;;;;;;4976890;28;20469;-84
2023/08/23 01:00:54;;;;;;;7.50;2.30;;;19.60;1.00;;;;;;4972870;28;20463;-84
2023/08/23 01:03:26;;;;;;;3.77;2.47;;;19.50;1.00;;;;;;4991722;28;20465;-84
2023/08/23 01:06:21;;;;;;;4.73;2.47;;;19.50;1.00;;;;;;4970562;28;20450;-84
2023/08/23 01:12:22;;;;;;;3.20;2.37;;;19.40;1.00;;;;;;4969177;28;20449;-83
2023/08/23 01:14:59;;;;;;;4.30;2.20;;;19.40;1.00;;;;;;4973792;28;20434;-82
2023/08/23 01:17:36;;;;;;;5.27;2.77;;;19.30;1.00;;;;;;4978022;28;20455;-84
2023/08/23 01:20:30;;;;;;;7.40;3.20;;;19.20;93.10;;;;;;4969665;28;20435;-84
2023/08/23 01:23:20;;;;;;;5.17;2.47;;;19.10;99.90;;;;;;4973345;28;20435;-83
2023/08/23 01:26:15;;;;;;;5.10;2.73;;;19.10;99.90;;;;;;4984744;28;20435;-84
2023/08/23 01:28:47;;;;;;;2.30;1.90;;;19.10;99.90;;;;;;4970781;28;20436;-83
2023/08/23 01:31:15;;;;;;;5.90;2.90;;;19.20;99.90;;;;;;4991880;28;20852;-84
2023/08/23 01:34:21;;;;;;;3.53;2.00;;;19.20;99.90;;;;;;4975424;28;20434;-84
2023/08/23 01:36:58;;;;;;;8.00;2.80;;;19.20;99.90;;;;;;4962275;28;20474;-84
2023/08/23 01:39:31;;;;;;;4.53;2.20;;;19.20;99.90;;;;;;4974358;28;20464;-83
2023/08/23 01:42:00;;;;;;;6.03;2.23;;;19.20;99.90;;;;;;4973255;28;20461;-81
2023/08/23 01:44:28;;;;;;;5.10;2.47;;;19.20;99.90;;;;;;4974863;28;20430;-84
2023/08/23 01:46:56;;;;;;;6.33;2.70;;;19.10;99.90;;;;;;4975778;28;20431;-82
2023/08/23 01:49:50;;;;;;;4.63;3.00;;;19.10;99.90;;;;;;4972958;28;20434;-83
2023/08/23 01:52:29;;;;;;;12.80;4.30;;;19.10;99.90;;;;;;4973904;28;20506;-83
2023/08/23 01:55:26;;;;;;;5.30;2.90;;;19.10;99.90;;;;;;4985147;28;20450;-82
2023/08/23 01:58:07;;;;;;;6.30;3.10;;;19.00;99.90;;;;;;4971468;28;20803;-84
2023/08/23 02:04:00;;;;;;;7.07;2.57;;;19.00;99.90;;;;;;4970488;28;20438;-83
2023/08/23 02:06:45;;;;;;;6.70;2.70;;;19.00;99.90;;;;;;4970644;28;20427;-83
2023/08/23 02:09:34;;;;;;;7.27;2.80;;;19.00;99.90;;;;;;4968473;28;20887;-83
2023/08/23 02:12:05;;;;;;;11.20;3.00;;;18.90;99.90;;;;;;4967146;28;20884;-84
2023/08/23 02:14:34;;;;;;;9.07;3.43;;;18.90;99.90;;;;;;4966725;28;20455;-83
2023/08/23 02:17:03;;;;;;;7.10;2.80;;;18.90;99.90;;;;;;4971172;28;20466;-84
2023/08/23 02:19:37;;;;;;;10.20;3.07;;;18.90;1.00;;;;;;4970303;28;20436;-83
2023/08/23 02:22:38;;;;;;;9.47;3.50;;;18.90;1.00;;;;;;4971609;28;20488;-83
2023/08/23 02:25:22;;;;;;;6.37;2.90;;;18.90;1.00;;;;;;4973171;28;20929;-82
2023/08/23 02:28:03;;;;;;;6.70;3.40;;;18.80;1.00;;;;;;4975444;28;20431;-83
2023/08/23 02:30:55;;;;;;;6.03;2.73;;;18.80;1.00;;;;;;4983286;28;20456;-83
2023/08/23 02:33:30;;;;;;;10.53;3.90;;;18.80;1.00;;;;;;4967212;28;20485;-82
2023/08/23 02:36:18;;;;;;;5.17;2.60;;;18.70;1.00;;;;;;4971798;28;20496;-82
2023/08/23 02:39:11;;;;;;;3.73;2.73;;;18.70;1.00;;;;;;4982485;28;20435;-84
2023/08/23 02:45:35;;;;;;;6.07;2.97;;;18.60;20.40;;;;;;4974015;28;20431;-83
2023/08/23 02:48:08;;;;;;;7.10;2.80;;;18.60;6.70;;;;;;4962745;28;20979;-84
2023/08/23 02:50:44;;;;;;;6.70;3.20;;;18.50;30.20;;;;;;4976166;28;20530;-84
2023/08/23 02:53:56;;;;;;;5.63;2.80;;;18.50;99.90;;;;;;4975535;28;20441;-84
2023/08/23 02:56:22;;;;;;;8.87;3.03;;;18.50;99.90;;;;;;4994753;28;20476;-83
2023/08/23 02:59:02;;;;;;;7.20;2.83;;;18.40;99.90;;;;;;4978779;28;20819;-85
2023/08/23 03:01:57;;;;;;;7.47;2.63;;;18.40;99.90;;;;;;4978655;28;20602;-84
2023/08/23 03:04:31;;;;;;;9.93;2.80;;;18.40;99.90;;;;;;4973495;28;20546;-81
2023/08/23 03:07:15;;;;;;;3.97;2.40;;;18.30;99.90;;;;;;4978696;28;20469;-84
2023/08/23 03:10:04;;;;;;;9.00;3.00;;;18.30;1.00;;;;;;4974390;28;20453;-84
2023/08/23 03:12:58;;;;;;;5.20;2.20;;;18.30;1.00;;;;;;4994610;28;20976;-84
2023/08/23 03:15:29;;;;;;;3.67;2.30;;;18.20;1.00;;;;;;4977432;28;20479;-84
2023/08/23 03:18:06;;;;;;;6.77;3.70;;;18.10;99.90;;;;;;4978446;28;20800;-82
2023/08/23 03:20:35;;;;;;;5.70;2.40;;;18.00;1.00;;;;;;4972876;28;20448;-84
2023/08/23 03:23:18;;;;;;;12.60;3.33;;;18.00;1.00;;;;;;4972744;28;21040;-84
2023/08/23 03:25:58;;;;;;;5.10;3.40;;;17.90;1.00;;;;;;4973050;28;20453;-83
2023/08/23 03:28:34;;;;;;;8.37;3.03;;;17.90;1.00;;;;;;4976478;28;20442;-84
2023/08/23 03:31:38;;;;;;;7.10;3.37;;;17.80;1.00;;;;;;4975491;28;20476;-83
2023/08/23 03:34:14;;;;;;;8.43;3.10;;;17.80;99.90;;;;;;4992274;28;20455;-81
2023/08/23 03:36:46;;;;;;;10.00;2.97;;;17.80;99.90;;;;;;4974909;28;20846;-82
2023/08/23 03:39:11;;;;;;;9.67;3.20;;;17.80;99.90;;;;;;4966967;28;20454;-83
2023/08/23 03:41:53;;;;;;;4.30;2.87;;;17.80;99.90;;;;;;4971527;28;20493;-83
2023/08/23 03:44:51;;;;;;;;;;;;;;;;;;;;;
2023/08/23 03:47:17;;;;;;;11.20;3.87;;;17.70;99.90;;;;;;4974800;28;20446;-83
2023/08/23 03:49:52;;;;;;;8.73;3.40;;;17.70;1.00;;;;;;4973137;28;20513;-83
2023/08/23 03:52:54;;;;;;;7.47;3.60;;;17.60;1.00;;;;;;4971085;28;20320;-84
2023/08/23 03:55:47;;;;;;;7.53;4.23;;;17.60;99.90;;;;;;4965087;28;20443;-83
2023/08/23 03:58:15;;;;;;;10.43;5.80;;;17.50;1.00;;;;;;4970562;28;20442;-80
2023/08/23 04:00:45;;;;;;;10.00;4.20;;;17.50;1.00;;;;;;4969781;28;20472;-84
2023/08/23 04:03:16;;;;;;;10.97;4.07;;;17.50;1.00;;;;;;4971757;28;20521;-83
2023/08/23 04:05:48;;;;;;;6.03;3.23;;;17.50;1.00;;;;;;4972413;28;20459;-83
2023/08/23 04:08:16;;;;;;;9.07;3.90;;;17.50;43.80;;;;;;4972933;28;20459;-83
2023/08/23 04:10:47;;;;;;;8.50;3.80;;;17.50;99.90;;;;;;4968140;28;20851;-83
2023/08/23 04:13:12;;;;;;;7.80;3.33;;;17.50;99.90;;;;;;4969227;28;20943;-80
2023/08/23 04:15:49;;;;;;;6.00;3.50;;;17.50;99.90;;;;;;4970673;28;20534;-83
2023/08/23 04:18:17;;;;;;;8.47;4.10;;;17.50;99.90;;;;;;4972404;28;20568;-83
2023/08/23 04:20:46;;;;;;;6.40;3.40;;;17.50;99.90;;;;;;4970516;28;20479;-83
2023/08/23 04:23:45;;;;;;;9.60;3.63;;;17.50;99.90;;;;;;4976345;28;20868;-84
2023/08/23 04:26:22;;;;;;;6.37;3.53;;;17.50;99.90;;;;;;4972821;28;20517;-84
2023/08/23 04:28:55;;;;;;;10.87;3.87;;;17.60;99.90;;;;;;4970371;28;20799;-84
2023/08/23 04:31:26;;;;;;;9.10;3.67;;;17.50;1.00;;;;;;4975061;28;20453;-83
2023/08/23 04:34:07;;;;;;;5.57;3.80;;;17.50;1.00;;;;;;4974481;28;20433;-83
2023/08/23 04:37:05;;;;;;;;;;;;;;;;;;;;;
2023/08/23 04:39:31;;;;;;;11.77;4.13;;;17.60;99.90;;;;;;4977247;28;20508;-82
2023/08/23 04:41:57;;;;;;;6.40;3.67;;;17.60;99.90;;;;;;4974633;28;20487;-84
2023/08/23 04:44:23;;;;;;;11.33;4.10;;;17.60;90.50;;;;;;4976903;28;20209;-83
2023/08/23 04:46:49;;;;;;;8.17;4.00;;;17.60;1.00;;;;;;4969167;28;20192;-85
2023/08/23 04:49:15;;;;;;;9.10;4.63;;;17.60;1.00;;;;;;4975228;28;20447;-83
2023/08/23 04:51:44;;;;;;;19.33;4.17;;;17.60;1.00;;;;;;4975769;28;20452;-81
2023/08/23 04:54:09;;;;;;;12.50;4.00;;;17.60;1.00;;;;;;4975667;28;20725;-83
2023/08/23 04:56:35;;;;;;;9.17;3.60;;;17.70;1.00;;;;;;4976591;28;20540;-83
2023/08/23 04:59:00;;;;;;;9.60;4.30;;;17.70;1.00;;;;;;4973738;28;20190;-83
2023/08/23 05:01:26;;;;;;;6.90;4.10;;;17.80;1.00;;;;;;4971647;28;20209;-83
2023/08/23 05:03:51;;;;;;;14.43;5.00;;;17.90;1.00;;;;;;4974683;28;20193;-83
2023/08/23 05:06:17;;;;;;;9.70;4.30;;;17.90;99.90;;;;;;4976524;28;20280;-83
2023/08/23 05:08:42;;;;;;;9.67;4.20;;;18.00;99.90;;;;;;4973462;28;20206;-83
2023/08/23 05:11:08;;;;;;;14.33;4.90;;;18.10;13.90;;;;;;4972294;28;20225;-84
2023/08/23 05:13:33;;;;;;;12.47;4.70;;;18.30;1.00;;;;;;4974901;28;20206;-80
2023/08/23 05:15:59;;;;;;;15.30;4.53;;;18.40;1.00;;;;;;4972763;28;20210;-83
2023/08/23 05:18:24;;;;;;;9.30;4.27;;;18.50;99.90;;;;;;4966507;28;20192;-83
2023/08/23 05:20:54;;;;;;;11.60;5.13;;;18.60;99.90;;;;;;4970748;28;20203;-82
2023/08/23 05:23:21;;;;;;;23.20;5.10;;;18.60;1.10;;;;;;4971841;28;20586;-83
2023/08/23 05:25:47;;;;;;;9.13;4.57;;;18.70;1.00;;;;;;4969140;28;20986;-83
2023/08/23 05:28:12;;;;;;;17.10;5.10;;;19.10;1.00;;;;;;4971398;28;20447;-81
2023/08/23 05:30:39;;;;;;;8.77;4.13;;;20.80;1.00;;;;;;4970539;28;20212;-83
2023/08/23 05:33:06;;;;;;;13.00;4.67;;;22.80;99.90;;;;;;4969800;28;20187;-82
2023/08/23 05:35:32;;;;;;;8.60;4.27;;;24.50;1.00;;;;;;4966436;28;20549;-84
2023/08/23 05:37:58;;;;;;;13.30;4.97;;;26.00;1.00;;;;;;4973686;28;20434;-84
2023/08/23 05:40:23;;;;;;;14.77;4.37;;;27.30;1.00;;;;;;4972626;28;20435;-86
2023/08/23 05:42:49;;;;;;;11.33;4.17;;;28.50;1.00;;;;;;4971350;28;20191;-84
2023/08/23 05:45:14;;;;;;;15.00;5.37;;;29.60;1.00;;;;;;4970408;28;20279;-84
2023/08/23 05:47:40;;;;;;;13.63;4.27;;;30.60;1.00;;;;;;4967099;28;20181;-85
2023/08/23 05:50:06;;;;;;;13.53;4.60;;;31.60;1.00;;;;;;4970220;28;20616;-84
2023/08/23 05:52:31;;;;;;;11.63;5.00;;;32.40;1.00;;;;;;4969542;28;20232;-84
2023/08/23 05:54:57;;;;;;;9.70;4.87;;;33.10;1.00;;;;;;4964880;28;20440;-84
2023/08/23 05:57:22;;;;;;;9.30;3.90;;;33.90;1.00;;;;;;4974024;28;20227;-84
2023/08/23 05:59:48;;;;;;;12.70;4.80;;;34.70;1.00;;;;;;4972148;28;20231;-84
2023/08/23 06:02:13;;;;;;;8.57;3.50;;;35.30;1.00;;;;;;4969095;28;20689;-83
2023/08/23 06:04:39;;;;;;;8.17;4.20;;;36.70;1.00;;;;;;4975427;28;20255;-84
2023/08/23 06:07:05;;;;;;;10.00;3.20;;;38.20;1.00;;;;;;4972993;28;20254;-86
2023/08/23 06:09:33;;;;;;;17.03;3.80;;;39.40;1.00;;;;;;4977593;28;20195;-85
2023/08/23 06:12:00;;;;;;;8.83;3.60;;;40.50;1.00;;;;;;4973020;28;20451;-85
2023/08/23 06:14:25;;;;;;;7.77;3.50;;;41.50;1.00;;;;;;4974766;28;20881;-84
2023/08/23 06:16:51;;;;;;;10.83;2.87;;;42.30;1.00;;;;;;4976370;28;20498;-86
2023/08/23 06:19:17;;;;;;;7.00;2.70;;;42.90;1.00;;;;;;4975743;28;20192;-84
2023/08/23 06:21:45;;;;;;;9.60;2.80;;;43.70;1.00;;;;;;4975129;28;20200;-84
2023/08/23 06:24:11;;;;;;;4.37;2.60;;;44.10;1.00;;;;;;4973867;28;20259;-82
2023/08/23 06:26:37;;;;;;;4.87;3.17;;;44.80;1.00;;;;;;4971945;28;20440;-84
2023/08/23 06:29:03;;;;;;;4.90;3.17;;;45.40;1.00;;;;;;4968170;28;20449;-85
2023/08/23 06:31:30;;;;;;;5.10;2.93;;;45.90;1.00;;;;;;4964830;28;20297;-82
2023/08/23 06:33:55;;;;;;;8.40;2.93;;;46.50;1.00;;;;;;4970298;28;20442;-82
2023/08/23 06:36:21;;;;;;;10.10;3.57;;;47.10;1.00;;;;;;4973596;28;22356;-82
2023/08/23 06:38:47;;;;;;;11.67;3.20;;;47.30;1.00;;;;;;4970262;28;20259;-84
2023/08/23 06:41:12;;;;;;;15.10;2.90;;;48.00;1.00;;;;;;4971365;28;20203;-83
2023/08/23 06:43:38;;;;;;;10.00;3.80;;;48.50;99.90;;;;;;4970906;28;20442;-82
2023/08/23 06:46:03;;;;;;;14.60;3.60;;;48.90;99.90;;;;;;4964931;28;20219;-82
2023/08/23 06:48:29;;;;;;;9.53;3.70;;;49.00;99.90;;;;;;4965698;28;20191;-82
2023/08/23 06:50:54;;;;;;;9.53;3.30;;;48.90;99.90;;;;;;4969090;28;20298;-80
2023/08/23 06:53:20;;;;;;;9.73;3.50;;;49.10;99.90;;;;;;4969790;28;20180;-83
2023/08/23 06:55:46;;;;;;;12.83;3.90;;;49.10;99.90;;;;;;4971000;28;20720;-82
2023/08/23 06:58:12;;;;;;;11.90;3.47;;;49.70;99.90;;;;;;4970110;28;20200;-80
2023/08/23 07:00:38;;;;;;;21.03;3.43;;;50.40;99.90;;;;;;4964942;28;20306;-83
2023/08/23 07:03:04;;;;;;;13.13;3.40;;;50.80;99.90;;;;;;4967618;28;20676;-84
2023/08/23 07:05:32;;;;;;;13.07;4.00;;;51.10;99.90;;;;;;4967073;28;20331;-83
2023/08/23 07:07:58;;;;;;;12.10;3.30;;;51.60;99.90;;;;;;4968172;28;20942;-82
2023/08/23 07:10:23;;;;;;;16.77;3.87;;;51.70;99.90;;;;;;4971370;28;20270;-85
2023/08/23 07:12:49;;;;;;;9.20;3.87;;;51.90;99.90;;;;;;4973586;28;20634;-83
2023/08/23 07:15:14;;;;;;;17.20;4.63;;;51.80;99.90;;;;;;4974735;28;20215;-83
2023/08/23 07:17:40;;;;;;;10.43;3.37;;;51.90;99.90;;;;;;4981953;28;20191;-84
2023/08/23 07:20:06;;;;;;;11.33;2.97;;;52.10;99.90;;;;;;4991330;28;20254;-83
2023/08/23 07:22:32;;;;;;;14.80;3.73;;;51.40;99.90;;;;;;4978548;28;20590;-83
2023/08/23 07:24:57;;;;;;;10.67;3.60;;;51.70;99.90;;;;;;4973520;28;20255;-84
2023/08/23 07:27:23;;;;;;;8.97;3.07;;;52.00;99.90;;;;;;4968947;28;20188;-83
2023/08/23 07:29:49;;;;;;;9.10;3.07;;;51.30;99.90;;;;;;4973700;28;20267;-83
2023/08/23 07:32:14;;;;;;;13.23;3.80;;;51.10;99.90;;;;;;4973887;28;20216;-83
2023/08/23 07:34:40;;;;;;;10.40;3.93;;;50.50;99.90;;;;;;4978072;28;20196;-84
2023/08/23 07:37:06;;;;;;;9.43;3.90;;;50.90;99.90;;;;;;4981747;28;20205;-84
2023/08/23 07:39:32;;;;;;;15.90;4.10;;;50.70;99.90;;;;;;4986994;28;20211;-83
2023/08/23 07:41:57;;;;;;;9.43;3.17;;;51.00;99.90;;;;;;4981148;28;20451;-84
2023/08/23 07:44:23;;;;;;;10.57;3.63;;;51.20;99.90;;;;;;4975957;28;20194;-83
2023/08/23 07:46:48;;;;;;;11.33;3.20;;;50.90;99.90;;;;;;4973318;28;20194;-81
2023/08/23 07:49:14;;;;;;;12.17;3.40;;;51.20;99.90;;;;;;4976256;28;21967;-84
2023/08/23 07:51:40;;;;;;;6.30;3.40;;;51.40;99.90;;;;;;4976105;28;20208;-84
2023/08/23 07:54:07;;;;;;;12.40;3.57;;;50.20;99.90;;;;;;4972967;28;20630;-84
2023/08/23 07:56:32;;;;;;;10.07;3.27;;;51.00;99.90;;;;;;4975128;28;20216;-84
2023/08/23 07:58:58;;;;;;;15.67;3.83;;;50.80;99.90;;;;;;4973092;28;20192;-83
2023/08/23 08:01:26;;;;;;;6.73;3.43;;;51.90;99.90;;;;;;4971932;28;20218;-83
2023/08/23 08:03:52;;;;;;;9.77;3.67;;;51.10;99.90;;;;;;4970409;28;20215;-84
2023/08/23 08:06:24;;;;;;;16.00;3.93;;;51.10;99.90;;;;;;4971713;28;20485;-84
2023/08/23 08:08:52;;;;;;;9.60;4.10;;;52.20;99.90;;;;;;4969434;28;20243;-86
2023/08/23 08:11:23;;;;;;;16.83;3.57;;;52.60;99.90;;;;;;4972195;28;20218;-83
2023/08/23 08:13:48;;;;;;;10.90;3.50;;;53.10;99.90;;;;;;4970549;28;20680;-86
2023/08/23 08:16:35;;;;;;;19.53;4.67;;;52.80;99.90;;;;;;4963319;28;20208;-85
2023/08/23 08:19:32;;;;;;;7.80;3.13;;;53.20;99.90;;;;;;4965437;28;20187;-84
2023/08/23 08:22:17;;;;;;;7.90;3.77;;;53.10;99.90;;;;;;4967866;28;20604;-85
2023/08/23 08:24:54;;;;;;;10.97;3.83;;;52.20;99.90;;;;;;4968280;28;20828;-85
2023/08/23 08:27:33;;;;;;;8.67;3.60;;;52.60;99.90;;;;;;4968021;28;20250;-85
2023/08/23 08:30:32;;;;;;;8.13;2.97;;;52.60;99.90;;;;;;4974081;28;20307;-85
2023/08/23 08:33:11;;;;;;;9.27;3.00;;;53.20;99.90;;;;;;4967617;28;20636;-84
2023/08/23 08:35:46;;;;;;;14.83;3.07;;;53.60;99.90;;;;;;4968363;28;20201;-85
2023/08/23 08:38:15;;;;;;;8.80;3.00;;;54.00;99.90;;;;;;4976376;28;20202;-85
2023/08/23 08:40:44;;;;;;;6.90;2.38;;;54.40;99.90;;;;;;4970314;28;20235;-86
2023/08/23 08:43:17;;;;;;;6.82;2.50;;;54.10;99.90;;;;;;4968932;28;20303;-85
2023/08/23 08:45:46;;;;;;;7.70;3.40;;;53.60;99.90;;;;;;4968172;28;20254;-84
2023/08/23 08:48:16;;;;;;;8.10;3.05;;;53.50;99.90;;;;;;4966960;28;20250;-86
2023/08/23 08:53:25;;;;;;;6.55;2.47;;;54.30;99.90;;;;;;4970700;28;20219;-86
2023/08/23 08:55:51;;;;;;;9.57;2.88;;;54.60;99.90;;;;;;4964280;28;20187;-85
2023/08/23 08:58:21;;;;;;;5.10;2.50;;;54.80;99.90;;;;;;4968613;28;20196;-86
2023/08/23 09:00:52;;;;;;;6.13;2.45;;;54.70;99.90;;;;;;4967344;28;20313;-86
2023/08/23 09:03:19;;;;;;;8.50;2.97;;;54.70;99.90;;;;;;4970344;28;20219;-86
2023/08/23 09:05:47;;;;;;;6.10;2.95;;;54.60;99.90;;;;;;4966770;28;20343;-86
2023/08/23 09:08:36;;;;;;;8.25;2.05;;;55.00;99.90;;;;;;4970219;28;20191;-86
2023/08/23 09:11:12;;;;;;;7.18;2.60;;;54.90;99.90;;;;;;4967577;28;20207;-88
2023/08/23 09:13:52;;;;;;;5.28;2.70;;;54.60;99.90;;;;;;4961104;28;20646;-84
2023/08/23 09:16:30;;;;;;;5.20;2.17;;;55.00;99.90;;;;;;4970239;28;20210;-86
2023/08/23 09:19:06;;;;;;;7.03;2.20;;;54.70;99.90;;;;;;4965821;28;20187;-86
2023/08/23 09:21:33;;;;;;;6.10;2.33;;;54.10;99.90;;;;;;4962860;28;20262;-85
2023/08/23 09:23:59;;;;;;;3.50;1.67;;;54.20;99.90;;;;;;4968640;28;20565;-86
2023/08/23 09:26:25;;;;;;;6.65;1.98;;;54.30;99.90;;;;;;4952915;28;20245;-86
2023/08/23 09:28:51;;;;;;;3.13;1.92;;;54.40;99.90;;;;;;4965783;28;20239;-84
2023/08/23 09:31:16;;;;;;;5.00;2.30;;;54.10;99.90;;;;;;4963570;28;20214;-86
2023/08/23 09:33:42;;;;;;;4.88;2.17;;;54.00;99.90;;;;;;4968860;28;20184;-87
2023/08/23 09:36:07;;;;;;;4.38;2.30;;;53.50;99.90;;;;;;4968111;28;20187;-86
2023/08/23 09:38:33;;;;;;;6.85;2.58;;;53.80;99.90;;;;;;4968886;28;20227;-85
2023/08/23 09:41:01;;;;;;;6.78;2.83;;;53.70;99.90;;;;;;4966469;28;20290;-86
2023/08/23 09:43:54;;;;;;;6.78;2.65;;;53.80;99.90;;;;;;4966395;28;20248;-84
2023/08/23 09:46:46;;;;;;;4.70;2.75;;;53.70;99.90;;;;;;4963299;28;20210;-86
2023/08/23 09:49:19;;;;;;;3.95;2.20;;;53.40;99.90;;;;;;4965392;28;20203;-85
2023/08/23 09:51:45;;;;;;;6.07;2.75;;;53.50;99.90;;;;;;4986363;28;20720;-85
2023/08/23 09:54:15;;;;;;;7.03;3.17;;;53.60;99.90;;;;;;4969398;28;20616;-84
2023/08/23 09:56:42;;;;;;;7.00;2.75;;;53.90;99.90;;;;;;4975446;28;20270;-85
2023/08/23 09:59:09;;;;;;;4.32;2.47;;;53.20;99.90;;;;;;4952962;28;20586;-86
2023/08/23 10:01:35;;;;;;;6.93;2.47;;;53.00;99.90;;;;;;4968736;28;20561;-86
2023/08/23 10:04:03;;;;;;;5.37;2.50;;;52.60;99.90;;;;;;4970598;28;20767;-85
2023/08/23 10:06:30;;;;;;;5.67;2.73;;;52.80;99.90;;;;;;4963769;28;20237;-86
2023/08/23 10:08:57;;;;;;;9.87;3.00;;;53.10;99.90;;;;;;4953731;28;20177;-85
2023/08/23 10:11:25;;;;;;;6.03;2.33;;;53.20;99.90;;;;;;4962830;28;20555;-86
2023/08/23 10:13:51;;;;;;;4.77;2.13;;;53.30;99.90;;;;;;4963317;28;20190;-86
2023/08/23 10:16:18;;;;;;;5.20;2.03;;;53.30;99.90;;;;;;4971964;28;20191;-86
2023/08/23 10:18:45;;;;;;;4.50;2.07;;;53.50;99.90;;;;;;4973094;28;20273;-86
2023/08/23 10:21:10;;;;;;;11.10;2.27;;;53.50;99.90;;;;;;4972931;28;20195;-86
2023/08/23 10:23:36;;;;;;;4.00;2.03;;;53.80;99.90;;;;;;4975067;28;20203;-86
2023/08/23 10:26:05;;;;;;;4.50;2.23;;;53.70;99.90;;;;;;4979936;28;20202;-86
2023/08/23 10:28:30;;;;;;;6.07;2.30;;;53.90;99.90;;;;;;4971263;28;20218;-87
2023/08/23 10:31:00;;;;;;;4.10;2.03;;;53.70;99.90;;;;;;4982801;28;20200;-86
2023/08/23 10:33:28;;;;;;;3.40;1.70;;;53.30;99.90;;;;;;4973033;28;20202;-86
2023/08/23 10:35:53;;;;;;;4.23;2.23;;;52.80;99.90;;;;;;4973126;28;20262;-85
2023/08/23 10:38:21;;;;;;;5.60;2.63;;;52.30;99.90;;;;;;4967599;28;20183;-85
2023/08/23 10:40:52;;;;;;;4.10;2.37;;;51.80;99.90;;;;;;4972977;28;20563;-86
2023/08/23 10:43:20;;;;;;;4.03;2.47;;;51.50;99.90;;;;;;4966216;28;20187;-85
2023/08/23 10:46:02;;;;;;;4.80;2.40;;;51.20;99.90;;;;;;4971569;28;20211;-84
2023/08/23 10:48:38;;;;;;;5.10;2.80;;;51.00;99.90;;;;;;4969384;28;20434;-85
2023/08/23 10:51:03;;;;;;;6.03;2.47;;;50.90;99.90;;;;;;4957848;28;20541;-86
2023/08/23 10:53:32;;;;;;;9.00;2.70;;;50.80;99.90;;;;;;4974509;28;20533;-86
2023/08/23 10:56:02;;;;;;;6.07;2.87;;;50.70;99.90;;;;;;4973603;28;20192;-85
2023/08/23 10:58:30;;;;;;;5.90;3.20;;;50.50;99.90;;;;;;4960802;28;20433;-85
2023/08/23 11:00:58;;;;;;;4.47;2.90;;;50.00;99.90;;;;;;4974450;28;20497;-85
2023/08/23 11:03:34;;;;;;;8.20;3.50;;;49.70;99.90;;;;;;4972668;28;20446;-85
2023/08/23 11:06:05;;;;;;;6.27;3.10;;;49.50;99.90;;;;;;4972302;28;20458;-85
2023/08/23 11:08:34;;;;;;;6.90;3.70;;;49.20;99.90;;;;;;4972459;28;20423;-85
2023/08/23 11:10:59;;;;;;;5.47;3.50;;;49.30;99.90;;;;;;4973908;28;20475;-85
2023/08/23 11:13:25;;;;;;;3.47;2.90;;;48.90;99.90;;;;;;4966356;28;20902;-85
2023/08/23 11:15:50;;;;;;;9.57;4.03;;;48.90;99.90;;;;;;4975219;28;20665;-86
2023/08/23 11:18:16;;;;;;;8.30;3.60;;;48.80;99.90;;;;;;4973570;28;20219;-84
2023/08/23 11:20:42;;;;;;;6.03;3.13;;;48.40;99.90;;;;;;4975541;28;20211;-85
2023/08/23 11:23:08;;;;;;;7.43;3.53;;;48.60;99.90;;;;;;4959179;28;20184;-85
2023/08/23 11:25:34;;;;;;;6.40;3.83;;;48.60;99.90;;;;;;4977420;28;21044;-83
2023/08/23 11:27:59;;;;;;;10.20;3.87;;;48.40;99.90;;;;;;4976345;28;20183;-85
2023/08/23 11:30:27;;;;;;;6.20;3.80;;;48.30;99.90;;;;;;4975069;28;20423;-85
2023/08/23 11:32:56;;;;;;;5.50;3.97;;;47.90;99.90;;;;;;4975430;28;20183;-86
2023/08/23 11:35:22;;;;;;;5.40;3.60;;;47.70;99.90;;;;;;4971832;28;20450;-85
2023/08/23 11:37:53;;;;;;;5.67;4.93;;;47.70;99.90;;;;;;4968526;28;20432;-85
2023/08/23 11:40:19;;;;;;;10.67;4.77;;;47.50;99.90;;;;;;4973571;28;20681;-85
2023/08/23 11:42:45;;;;;;;8.00;6.13;;;47.40;99.90;;;;;;4974096;28;20470;-85
2023/08/23 11:45:11;;;;;;;10.30;5.77;;;47.10;99.90;;;;;;4963798;28;20222;-85
2023/08/23 11:47:39;;;;;;;6.50;5.23;;;47.10;99.90;;;;;;4968109;28;20503;-85
2023/08/23 11:50:08;;;;;;;6.40;5.07;;;47.50;99.90;;;;;;4973153;28;20555;-84
2023/08/23 11:52:34;;;;;;;9.47;6.37;;;47.60;99.90;;;;;;4972566;28;20443;-84
2023/08/23 11:55:03;;;;;;;11.60;5.47;;;47.50;99.90;;;;;;4964028;28;20436;-84
2023/08/23 11:57:32;;;;;;;7.20;5.70;;;47.40;99.90;;;;;;4982933;28;20181;-85
2023/08/23 11:59:58;;;;;;;8.83;6.93;;;47.60;99.90;;;;;;4953221;28;20452;-85
2023/08/23 12:02:23;;;;;;;8.87;7.00;;;47.50;99.90;;;;;;4967542;28;20454;-83
2023/08/23 12:04:49;;;;;;;9.13;6.60;;;47.40;99.90;;;;;;4974468;28;20183;-84
2023/08/23 12:07:14;;;;;;;10.13;6.90;;;46.90;99.90;;;;;;4973316;28;20668;-85
2023/08/23 12:09:40;;;;;;;8.10;6.23;;;46.80;99.90;;;;;;4970933;28;20188;-85
2023/08/23 12:12:06;;;;;;;10.27;6.50;;;47.00;99.90;;;;;;4964630;28;20208;-85
2023/08/23 12:14:31;;;;;;;9.40;6.77;;;46.70;99.90;;;;;;4955586;28;20567;-85
2023/08/23 12:16:57;;;;;;;10.57;7.33;;;46.70;99.90;;;;;;4969595;28;20428;-85
2023/08/23 12:19:23;;;;;;;10.23;8.23;;;46.40;99.90;;;;;;4974131;28;20259;-82
2023/08/23 12:21:49;;;;;;;10.97;7.17;;;46.10;99.90;;;;;;4974453;28;20619;-83
2023/08/23 12:24:15;;;;;;;9.63;8.63;;;46.20;99.90;;;;;;4974092;28;20235;-84
2023/08/23 12:26:41;;;;;;;13.13;8.90;;;46.00;99.90;;;;;;4990509;28;20470;-85
2023/08/23 12:29:06;;;;;;;10.10;8.20;;;45.80;99.90;;;;;;4965796;28;20219;-84
2023/08/23 12:31:32;;;;;;;14.33;7.87;;;46.00;99.90;;;;;;4973870;28;20204;-85
2023/08/23 12:33:57;;;;;;;11.70;7.87;;;46.00;99.90;;;;;;4974438;28;20255;-84
2023/08/23 12:36:25;;;;;;;10.40;8.30;;;46.10;99.90;;;;;;4977483;28;20717;-85
2023/08/23 12:38:53;;;;;;;9.90;7.90;;;46.20;99.90;;;;;;4963491;28;20185;-84
2023/08/23 12:41:19;;;;;;;12.33;8.80;;;46.10;99.90;;;;;;4969753;28;20849;-85
2023/08/23 12:43:45;;;;;;;8.00;7.20;;;45.70;99.90;;;;;;4965916;28;20498;-84
2023/08/23 12:46:48;;;;;;;9.50;8.50;;;45.50;99.90;;;;;;4964909;28;20229;-84
2023/08/23 12:49:17;;;;;;;8.10;6.30;;;45.00;99.90;;;;;;4970291;28;20176;-84
2023/08/23 12:51:43;;;;;;;9.93;6.53;;;44.60;99.90;;;;;;4975517;28;20494;-84
2023/08/23 12:54:09;;;;;;;6.13;4.70;;;44.40;99.90;;;;;;4972782;28;20424;-84
2023/08/23 12:56:36;;;;;;;6.17;3.90;;;44.10;99.90;;;;;;4974395;28;20429;-84
2023/08/23 12:59:02;;;;;;;5.83;4.60;;;43.70;99.90;;;;;;4968029;28;20486;-85
2023/08/23 13:01:28;;;;;;;6.77;3.90;;;43.20;99.90;;;;;;4968344;28;20453;-84
2023/08/23 13:03:54;;;;;;;5.83;4.10;;;43.00;99.90;;;;;;4969307;28;20474;-86
2023/08/23 13:06:20;;;;;;;6.07;4.13;;;42.70;99.90;;;;;;4972319;28;20550;-84
2023/08/23 13:08:46;;;;;;;6.23;4.17;;;42.50;99.90;;;;;;4972919;28;20176;-85
2023/08/23 13:11:12;;;;;;;6.70;3.43;;;42.40;99.90;;;;;;4973143;28;20196;-83
2023/08/23 13:13:39;;;;;;;7.23;4.43;;;42.20;99.90;;;;;;4971622;28;20422;-84
2023/08/23 13:16:05;;;;;;;5.30;3.07;;;42.20;99.90;;;;;;4965369;28;20451;-85
2023/08/23 13:18:30;;;;;;;5.03;2.97;;;42.20;99.90;;;;;;4961049;28;20413;-84
2023/08/23 13:20:56;;;;;;;8.47;3.70;;;42.20;99.90;;;;;;4967767;28;20631;-84
2023/08/23 13:23:21;;;;;;;5.47;3.70;;;41.80;99.90;;;;;;4972757;28;20199;-84
2023/08/23 13:25:47;;;;;;;5.20;3.63;;;41.60;99.90;;;;;;4977320;28;20218;-83